Casselman, Canada
Current Conditions -  °F | °C
As of 8:22 AM on Tuesday 21 Oct 2014 (Local Time) from KMSS Reporting Station
Overcast Overcast  
Wind Chill: 38°   Ceiling: 4100
Heat Index: 44°   Visibility: 8mi
Dew Point: 42°   Wind: 12mph
Humidity: 93%   Direction: 70°ENE
Pressure: 29.95"   Gusts: NA
Location:  45.3°N, 75.08°W
Report Text: KMSS 211222Z AUTO 07010KT 8SM FEW008 OVC041 07/06 A2995 RMK AO2 T00670056
Loading
Personal Weather Stations






























Interactive Weather Map
Tropical Storm Tracking
New forecast layout! Learn more

10-Day Weather Forecast

Advertisements
Track Severe Weather on mobile